Time;durP1;ratioP1;P1;durP2;ratioP2;P2;SDS_P1;SDS_P2;PMS_P1;PMS_P2;Temp;Humidity;BMP_temperature;BMP_pressure;BME280_temperature;BME280_humidity;BME280_pressure;Samples;Min_cycle;Max_cycle;Signal;HPM_P1;HPM_P2
2021/11/11 00:00:08;;;;;;;7.33;6.63;;;;;;;;;;5047710;28;20439;-66
2021/11/11 00:02:41;;;;;;;7.65;6.85;;;;;;;;;;5060844;28;20443;-67
2021/11/11 00:05:14;;;;;;;7.40;6.70;;;;;;;;;;5060695;28;20417;-67
2021/11/11 00:07:42;;;;;;;8.00;6.95;;;;;;;;;;5065959;28;20477;-67
2021/11/11 00:10:12;;;;;;;8.20;7.13;;;;;;;;;;5059661;28;20398;-65
2021/11/11 00:12:53;;;;;;;8.60;7.15;;;;;;;;;;5069624;28;20467;-65
2021/11/11 00:15:25;;;;;;;8.38;7.05;;;;;;;;;;5048699;28;20895;-66
2021/11/11 00:17:54;;;;;;;7.80;6.82;;;;;;;;;;5048165;28;20372;-67
2021/11/11 00:20:32;;;;;;;8.50;6.90;;;;;;;;;;5051206;28;20396;-67
2021/11/11 00:23:01;;;;;;;7.47;6.40;;;;;;;;;;5069227;28;20396;-66
2021/11/11 00:25:32;;;;;;;7.78;6.40;;;;;;;;;;5050397;28;20395;-67
2021/11/11 00:28:05;;;;;;;7.75;6.72;;;;;;;;;;5059962;28;20406;-66
2021/11/11 00:30:36;;;;;;;7.03;6.35;;;;;;;;;;5064100;28;20967;-66
2021/11/11 00:33:09;;;;;;;7.57;6.57;;;;;;;;;;5048299;28;20401;-66
2021/11/11 00:35:41;;;;;;;7.28;6.50;;;;;;;;;;5067073;28;20404;-67
2021/11/11 00:38:13;;;;;;;7.25;6.55;;;;;;;;;;5060934;28;20651;-66
2021/11/11 00:40:44;;;;;;;7.43;6.70;;;;;;;;;;5060972;28;20389;-66
2021/11/11 00:43:15;;;;;;;7.30;6.60;;;;;;;;;;5063384;28;20398;-65
2021/11/11 00:45:46;;;;;;;12.93;7.40;;;;;;;;;;5066139;28;20419;-65
2021/11/11 00:48:13;;;;;;;8.10;6.97;;;;;;;;;;5051862;28;20577;-65
2021/11/11 00:50:47;;;;;;;6.90;6.20;;;;;;;;;;5061286;28;20410;-65
2021/11/11 00:53:14;;;;;;;7.57;6.68;;;;;;;;;;5068456;28;20398;-65
2021/11/11 00:55:44;;;;;;;7.38;6.57;;;;;;;;;;5071322;28;20411;-65
2021/11/11 00:58:12;;;;;;;7.45;6.68;;;;;;;;;;5047404;28;20409;-66
2021/11/11 01:00:42;;;;;;;8.85;6.60;;;;;;;;;;5049316;28;20936;-66
2021/11/11 01:03:15;;;;;;;7.28;6.38;;;;;;;;;;5054042;28;20692;-67
2021/11/11 01:05:45;;;;;;;6.90;6.20;;;;;;;;;;5062514;28;20410;-66
2021/11/11 01:08:15;;;;;;;7.45;6.70;;;;;;;;;;5068505;28;20767;-66
2021/11/11 01:10:45;;;;;;;6.87;6.17;;;;;;;;;;5058082;28;20402;-66
2021/11/11 01:13:18;;;;;;;7.32;6.63;;;;;;;;;;5048974;28;20440;-67
2021/11/11 01:15:48;;;;;;;6.60;6.00;;;;;;;;;;5049582;28;20481;-66
2021/11/11 01:18:18;;;;;;;7.53;6.60;;;;;;;;;;5066187;28;20433;-67
2021/11/11 01:20:53;;;;;;;6.63;6.03;;;;;;;;;;5059516;28;20394;-65
2021/11/11 01:23:24;;;;;;;7.53;6.53;;;;;;;;;;5066654;28;20397;-65
2021/11/11 01:25:57;;;;;;;6.50;5.90;;;;;;;;;;5067176;28;20394;-66
2021/11/11 01:28:27;;;;;;;6.50;5.90;;;;;;;;;;5063414;28;20395;-66
2021/11/11 01:30:59;;;;;;;7.32;6.20;;;;;;;;;;5049881;28;20873;-67
2021/11/11 01:33:30;;;;;;;6.30;5.70;;;;;;;;;;5047153;28;20404;-67
2021/11/11 01:36:02;;;;;;;6.53;5.90;;;;;;;;;;5067661;28;20465;-65
2021/11/11 01:38:34;;;;;;;6.32;5.72;;;;;;;;;;5057664;28;20394;-66
2021/11/11 01:41:08;;;;;;;5.93;5.43;;;;;;;;;;5067525;28;20393;-66
2021/11/11 01:43:36;;;;;;;6.70;6.10;;;;;;;;;;5071992;28;20737;-67
2021/11/11 01:46:09;;;;;;;6.47;5.80;;;;;;;;;;5049297;28;20456;-67
2021/11/11 01:48:42;;;;;;;6.57;5.90;;;;;;;;;;5049685;28;20531;-67
2021/11/11 01:51:15;;;;;;;6.95;6.20;;;;;;;;;;5068268;28;20398;-66
2021/11/11 01:53:48;;;;;;;6.18;5.55;;;;;;;;;;5070191;28;20405;-66
2021/11/11 01:56:20;;;;;;;6.53;5.90;;;;;;;;;;5054776;28;20398;-66
2021/11/11 01:58:52;;;;;;;6.77;6.07;;;;;;;;;;5071559;28;20720;-67
2021/11/11 02:01:21;;;;;;;6.05;5.45;;;;;;;;;;5053627;28;20410;-66
2021/11/11 02:03:49;;;;;;;6.28;5.68;;;;;;;;;;5049377;28;20792;-66
2021/11/11 02:06:19;;;;;;;6.53;5.40;;;;;;;;;;5054886;28;20404;-66
2021/11/11 02:08:48;;;;;;;5.93;5.32;;;;;;;;;;5068560;28;20405;-66
2021/11/11 02:11:24;;;;;;;6.37;5.43;;;;;;;;;;5070955;28;20827;-66
2021/11/11 02:13:54;;;;;;;5.57;5.07;;;;;;;;;;5053454;28;20428;-67
2021/11/11 02:16:24;;;;;;;6.10;5.23;;;;;;;;;;5049744;28;20398;-66
2021/11/11 02:18:57;;;;;;;6.57;5.97;;;;;;;;;;5074853;28;20396;-66
2021/11/11 02:21:27;;;;;;;6.13;5.57;;;;;;;;;;5066663;28;20398;-67
2021/11/11 02:23:54;;;;;;;5.45;4.95;;;;;;;;;;5069506;28;20415;-66
2021/11/11 02:26:30;;;;;;;6.40;5.80;;;;;;;;;;5048946;28;20413;-66
2021/11/11 02:29:02;;;;;;;5.55;5.05;;;;;;;;;;5064111;28;20947;-66
2021/11/11 02:31:31;;;;;;;5.90;5.35;;;;;;;;;;5069129;28;21006;-66
2021/11/11 02:34:02;;;;;;;6.15;5.55;;;;;;;;;;5067193;28;20413;-66
2021/11/11 02:36:35;;;;;;;5.70;5.13;;;;;;;;;;5064031;28;20497;-67
2021/11/11 02:39:10;;;;;;;5.80;5.18;;;;;;;;;;5044382;28;20386;-67
2021/11/11 02:41:39;;;;;;;5.90;5.40;;;;;;;;;;5066583;28;20410;-65
2021/11/11 02:44:11;;;;;;;5.85;5.25;;;;;;;;;;5068649;28;20421;-65
2021/11/11 02:46:41;;;;;;;5.70;5.20;;;;;;;;;;5063804;28;20519;-65
2021/11/11 02:49:13;;;;;;;6.07;5.47;;;;;;;;;;5067642;28;20398;-66
2021/11/11 02:51:49;;;;;;;5.88;5.38;;;;;;;;;;5067327;28;20390;-66
2021/11/11 02:54:19;;;;;;;5.57;5.07;;;;;;;;;;5051915;28;20401;-65
2021/11/11 02:56:52;;;;;;;5.13;4.63;;;;;;;;;;5070114;28;20414;-65
2021/11/11 02:59:19;;;;;;;5.75;4.88;;;;;;;;;;5069552;28;20394;-66
2021/11/11 03:01:49;;;;;;;5.43;4.93;;;;;;;;;;5069825;28;20402;-65
2021/11/11 03:04:20;;;;;;;5.35;4.85;;;;;;;;;;5072118;28;20842;-65
2021/11/11 03:06:50;;;;;;;5.47;4.97;;;;;;;;;;5072265;28;20780;-65
2021/11/11 03:09:19;;;;;;;6.07;5.53;;;;;;;;;;5081892;28;20404;-65
2021/11/11 03:12:01;;;;;;;5.50;5.00;;;;;;;;;;5090018;28;20383;-67
2021/11/11 03:14:30;;;;;;;4.88;4.35;;;;;;;;;;5086896;28;20411;-66
2021/11/11 03:16:59;;;;;;;5.60;5.10;;;;;;;;;;5087112;28;20407;-66
2021/11/11 03:19:31;;;;;;;5.63;4.85;;;;;;;;;;5090871;28;20721;-66
2021/11/11 03:21:58;;;;;;;5.82;5.30;;;;;;;;;;5086178;28;20400;-67
2021/11/11 03:24:27;;;;;;;5.78;5.28;;;;;;;;;;5085839;28;20428;-67
2021/11/11 03:27:02;;;;;;;5.27;4.77;;;;;;;;;;5086154;28;20396;-66
2021/11/11 03:29:32;;;;;;;5.25;4.55;;;;;;;;;;5088788;28;20386;-67
2021/11/11 03:32:02;;;;;;;5.80;4.90;;;;;;;;;;5085661;28;20451;-67
2021/11/11 03:34:32;;;;;;;5.50;5.00;;;;;;;;;;5065565;28;21216;-67
2021/11/11 03:37:02;;;;;;;5.47;4.90;;;;;;;;;;5063256;28;20398;-66
2021/11/11 03:39:32;;;;;;;5.40;4.90;;;;;;;;;;5084314;28;20405;-67
2021/11/11 03:42:09;;;;;;;6.07;5.30;;;;;;;;;;5084972;28;20477;-67
2021/11/11 03:44:40;;;;;;;5.20;4.70;;;;;;;;;;5088500;28;20383;-66
2021/11/11 03:47:09;;;;;;;5.32;4.40;;;;;;;;;;5085841;28;20396;-65
2021/11/11 03:49:39;;;;;;;4.95;4.50;;;;;;;;;;5090222;28;20422;-66
2021/11/11 03:52:12;;;;;;;5.20;4.80;;;;;;;;;;5085786;28;20717;-67
2021/11/11 03:54:42;;;;;;;5.60;5.10;;;;;;;;;;5086521;28;20396;-66
2021/11/11 03:57:23;;;;;;;5.45;4.95;;;;;;;;;;5070782;28;20815;-66
2021/11/11 03:59:51;;;;;;;5.45;4.95;;;;;;;;;;5086816;28;21150;-66
2021/11/11 04:02:23;;;;;;;5.68;5.18;;;;;;;;;;5069340;28;20392;-66
2021/11/11 04:04:54;;;;;;;5.13;4.70;;;;;;;;;;5071229;28;20882;-66
2021/11/11 04:07:26;;;;;;;4.97;4.57;;;;;;;;;;5095757;28;20384;-67
2021/11/11 04:09:53;;;;;;;5.28;4.68;;;;;;;;;;5084870;28;20872;-67
2021/11/11 04:12:22;;;;;;;5.55;5.07;;;;;;;;;;5083486;28;20405;-65
2021/11/11 04:14:55;;;;;;;4.55;4.15;;;;;;;;;;5087874;28;20491;-66
2021/11/11 04:17:26;;;;;;;5.50;5.00;;;;;;;;;;5072823;28;20400;-67
2021/11/11 04:19:54;;;;;;;5.50;5.00;;;;;;;;;;5087270;28;20404;-67
2021/11/11 04:22:22;;;;;;;5.25;4.75;;;;;;;;;;5076496;28;20463;-67
2021/11/11 04:24:53;;;;;;;4.90;4.40;;;;;;;;;;5088690;28;20389;-67
2021/11/11 04:27:32;;;;;;;4.75;4.35;;;;;;;;;;5086241;28;20418;-66
2021/11/11 04:30:18;;;;;;;5.18;4.43;;;;;;;;;;5078445;28;20431;-66
2021/11/11 04:32:47;;;;;;;4.90;4.50;;;;;;;;;;5064879;28;20423;-66
2021/11/11 04:35:39;;;;;;;4.90;4.47;;;;;;;;;;5085415;28;20388;-66
2021/11/11 04:41:35;;;;;;;5.55;4.75;;;;;;;;;;5034241;28;20395;-66
2021/11/11 04:44:32;;;;;;;5.18;4.68;;;;;;;;;;5086407;28;20384;-66
2021/11/11 04:47:33;;;;;;;5.35;4.85;;;;;;;;;;5088691;28;20411;-66
2021/11/11 05:01:26;;;;;;;4.75;4.35;;;;;;;;;;5084393;28;20399;-66
2021/11/11 05:04:09;;;;;;;4.95;4.45;;;;;;;;;;5086408;28;20919;-67
2021/11/11 05:06:36;;;;;;;5.07;4.63;;;;;;;;;;5083832;28;20841;-67
2021/11/11 05:09:05;;;;;;;5.28;4.78;;;;;;;;;;5087963;28;20404;-66
2021/11/11 05:11:35;;;;;;;5.00;4.60;;;;;;;;;;5074026;28;20388;-66
2021/11/11 05:14:04;;;;;;;5.30;4.80;;;;;;;;;;5060354;28;20403;-66
2021/11/11 05:16:35;;;;;;;4.88;4.47;;;;;;;;;;5069586;28;20886;-66
2021/11/11 05:19:04;;;;;;;4.80;4.40;;;;;;;;;;5067272;28;20383;-67
2021/11/11 05:21:34;;;;;;;5.60;4.93;;;;;;;;;;5067247;28;20403;-66
2021/11/11 05:24:04;;;;;;;6.00;5.20;;;;;;;;;;5051118;28;20389;-65
2021/11/11 05:26:34;;;;;;;5.37;4.87;;;;;;;;;;5050406;28;20407;-66
2021/11/11 05:29:05;;;;;;;5.63;5.13;;;;;;;;;;5069720;28;20449;-66
2021/11/11 05:31:37;;;;;;;5.38;4.88;;;;;;;;;;5070477;28;20430;-66
2021/11/11 05:34:07;;;;;;;5.20;4.80;;;;;;;;;;5069548;28;20474;-66
2021/11/11 05:36:40;;;;;;;5.50;5.00;;;;;;;;;;5065847;28;20400;-66
2021/11/11 05:39:12;;;;;;;5.60;5.10;;;;;;;;;;5068788;28;20409;-66
2021/11/11 05:41:41;;;;;;;5.72;5.15;;;;;;;;;;5066253;28;20402;-66
2021/11/11 05:44:10;;;;;;;6.18;5.57;;;;;;;;;;5067978;28;20390;-66
2021/11/11 05:46:38;;;;;;;5.85;5.25;;;;;;;;;;5063074;28;20887;-66
2021/11/11 05:49:08;;;;;;;6.27;5.67;;;;;;;;;;5070126;28;20438;-66
2021/11/11 05:51:36;;;;;;;5.90;5.40;;;;;;;;;;5070476;28;20413;-65
2021/11/11 05:54:20;;;;;;;6.35;5.72;;;;;;;;;;5072785;28;20480;-65
2021/11/11 05:56:48;;;;;;;6.00;5.40;;;;;;;;;;5065863;28;21022;-66
2021/11/11 05:59:20;;;;;;;6.47;5.88;;;;;;;;;;5073682;28;20407;-66
2021/11/11 06:01:51;;;;;;;6.57;5.95;;;;;;;;;;5052571;28;20405;-66
2021/11/11 06:04:19;;;;;;;6.05;5.45;;;;;;;;;;5060773;28;20390;-66
2021/11/11 06:06:48;;;;;;;6.32;5.72;;;;;;;;;;5070329;28;20450;-66
2021/11/11 06:09:18;;;;;;;6.33;5.70;;;;;;;;;;5067104;28;20411;-66
2021/11/11 06:11:47;;;;;;;6.57;5.97;;;;;;;;;;5068689;28;20401;-66
2021/11/11 06:14:19;;;;;;;6.60;6.00;;;;;;;;;;5069735;28;20407;-66
2021/11/11 06:16:51;;;;;;;6.82;6.13;;;;;;;;;;5038558;28;20407;-66
2021/11/11 06:19:25;;;;;;;6.90;6.25;;;;;;;;;;5066608;28;20396;-66
2021/11/11 06:21:56;;;;;;;9.05;6.90;;;;;;;;;;5061971;28;20430;-65
2021/11/11 06:24:26;;;;;;;8.95;7.10;;;;;;;;;;5065801;28;20487;-66
2021/11/11 06:26:54;;;;;;;8.47;6.77;;;;;;;;;;5065716;28;20456;-65
2021/11/11 06:29:24;;;;;;;10.95;7.65;;;;;;;;;;5062271;28;20494;-66
2021/11/11 06:31:57;;;;;;;12.20;8.40;;;;;;;;;;5034730;28;20389;-66
2021/11/11 06:34:49;;;;;;;12.02;8.13;;;;;;;;;;5049967;28;20926;-66
2021/11/11 06:37:22;;;;;;;12.27;8.03;;;;;;;;;;5050651;28;20417;-68
2021/11/11 06:39:54;;;;;;;10.20;7.40;;;;;;;;;;5059428;28;20383;-67
2021/11/11 06:42:24;;;;;;;10.45;8.38;;;;;;;;;;5070001;28;21349;-67
2021/11/11 06:44:53;;;;;;;10.45;8.40;;;;;;;;;;5063319;28;20396;-67
2021/11/11 06:47:58;;;;;;;10.23;8.23;;;;;;;;;;5068956;28;20710;-66
2021/11/11 06:50:28;;;;;;;10.40;7.72;;;;;;;;;;5070989;28;20390;-65
2021/11/11 06:53:31;;;;;;;12.63;8.02;;;;;;;;;;5057842;28;20553;-66
2021/11/11 06:56:01;;;;;;;10.82;7.78;;;;;;;;;;5060359;28;20897;-66
2021/11/11 06:58:29;;;;;;;9.82;8.15;;;;;;;;;;5056684;28;20416;-65
2021/11/11 07:00:59;;;;;;;12.70;8.55;;;;;;;;;;5044976;28;20409;-66
2021/11/11 07:03:33;;;;;;;12.05;7.70;;;;;;;;;;5064483;28;20413;-65
2021/11/11 07:06:11;;;;;;;12.85;8.35;;;;;;;;;;5048855;28;20376;-68
2021/11/11 07:08:42;;;;;;;10.98;8.02;;;;;;;;;;5055257;28;20421;-67
2021/11/11 07:11:11;;;;;;;11.93;8.82;;;;;;;;;;5069343;28;20401;-67
2021/11/11 07:13:41;;;;;;;14.63;8.60;;;;;;;;;;5075152;28;20715;-68
2021/11/11 07:16:11;;;;;;;12.65;8.73;;;;;;;;;;5052024;28;20402;-66
2021/11/11 07:18:44;;;;;;;11.75;8.30;;;;;;;;;;5064768;28;20442;-65
2021/11/11 07:21:13;;;;;;;12.40;8.30;;;;;;;;;;5048188;28;20900;-66
2021/11/11 07:23:42;;;;;;;11.77;8.32;;;;;;;;;;5068874;28;20407;-66
2021/11/11 07:26:32;;;;;;;17.98;9.00;;;;;;;;;;5056523;28;20409;-69
2021/11/11 07:29:02;;;;;;;17.58;9.45;;;;;;;;;;5054479;28;20867;-72
2021/11/11 07:31:35;;;;;;;22.63;10.40;;;;;;;;;;5065407;28;20401;-71
2021/11/11 07:34:06;;;;;;;23.55;11.40;;;;;;;;;;5070609;28;20473;-74
2021/11/11 07:36:38;;;;;;;22.42;11.20;;;;;;;;;;5064632;28;20516;-72
2021/11/11 07:39:16;;;;;;;21.67;10.68;;;;;;;;;;5069440;28;20483;-72
2021/11/11 07:41:49;;;;;;;20.55;10.68;;;;;;;;;;5063833;28;20407;-73
2021/11/11 07:44:20;;;;;;;18.85;9.77;;;;;;;;;;5078134;28;20491;-70
2021/11/11 07:46:50;;;;;;;19.20;10.13;;;;;;;;;;5060374;28;20394;-73
2021/11/11 07:49:21;;;;;;;16.70;9.93;;;;;;;;;;5039968;28;20403;-74
2021/11/11 07:51:52;;;;;;;18.47;9.20;;;;;;;;;;5066138;28;20731;-68
2021/11/11 07:54:24;;;;;;;13.48;8.90;;;;;;;;;;5061600;28;20406;-68
2021/11/11 07:56:55;;;;;;;16.63;9.38;;;;;;;;;;5044984;28;20394;-67
2021/11/11 07:59:24;;;;;;;14.13;9.45;;;;;;;;;;5070023;28;20405;-69
2021/11/11 08:01:53;;;;;;;14.07;8.82;;;;;;;;;;5068539;28;21059;-68
2021/11/11 08:04:21;;;;;;;15.35;8.20;;;;;;;;;;5071376;28;20412;-69
2021/11/11 08:06:51;;;;;;;13.60;8.43;;;;;;;;;;5066007;28;20826;-71
2021/11/11 08:09:20;;;;;;;12.80;7.25;;;;;;;;;;5042268;28;20424;-68
2021/11/11 08:11:49;;;;;;;10.98;7.60;;;;;;;;;;5068549;28;20417;-71
2021/11/11 08:14:26;;;;;;;12.40;7.90;;;;;;;;;;5052562;28;20475;-70
2021/11/11 08:16:56;;;;;;;13.60;7.40;;;;;;;;;;5062206;28;21094;-69
2021/11/11 08:19:25;;;;;;;11.75;6.93;;;;;;;;;;5066106;28;20485;-69
2021/11/11 08:21:53;;;;;;;10.48;7.10;;;;;;;;;;5062115;28;20402;-71
2021/11/11 08:24:23;;;;;;;8.77;6.80;;;;;;;;;;5055641;28;20473;-71
2021/11/11 08:26:52;;;;;;;10.55;6.88;;;;;;;;;;5065533;28;21097;-71
2021/11/11 08:29:29;;;;;;;8.02;6.63;;;;;;;;;;5063352;28;20417;-71
2021/11/11 08:31:59;;;;;;;7.63;6.57;;;;;;;;;;5064062;28;20889;-70
2021/11/11 08:34:32;;;;;;;9.52;6.55;;;;;;;;;;5057776;28;20394;-71
2021/11/11 08:37:02;;;;;;;8.60;6.30;;;;;;;;;;5064310;28;21065;-69
2021/11/11 08:39:46;;;;;;;7.97;6.40;;;;;;;;;;5064225;28;20422;-69
2021/11/11 08:42:21;;;;;;;10.05;6.53;;;;;;;;;;5068200;28;20498;-71
2021/11/11 08:44:50;;;;;;;7.55;6.05;;;;;;;;;;5066132;28;20433;-71
2021/11/11 08:47:23;;;;;;;8.70;6.70;;;;;;;;;;5067355;28;20398;-70
2021/11/11 08:49:54;;;;;;;7.80;6.40;;;;;;;;;;5069876;28;20397;-70
2021/11/11 08:52:23;;;;;;;8.38;6.40;;;;;;;;;;5065663;28;21112;-71
2021/11/11 08:54:54;;;;;;;7.72;6.05;;;;;;;;;;5067310;28;20413;-72
2021/11/11 08:57:28;;;;;;;8.02;6.25;;;;;;;;;;5050427;28;20397;-71
2021/11/11 09:00:13;;;;;;;7.25;6.03;;;;;;;;;;5067055;28;20397;-72
2021/11/11 09:02:55;;;;;;;7.82;5.80;;;;;;;;;;5067690;28;20385;-67
2021/11/11 09:05:32;;;;;;;6.28;5.55;;;;;;;;;;5067099;28;20398;-67
2021/11/11 09:08:05;;;;;;;6.57;5.85;;;;;;;;;;5055699;28;20396;-69
2021/11/11 09:10:48;;;;;;;7.75;5.57;;;;;;;;;;5084256;28;20497;-70
2021/11/11 09:13:27;;;;;;;6.72;5.78;;;;;;;;;;5072701;28;20388;-69
2021/11/11 09:15:57;;;;;;;8.05;6.45;;;;;;;;;;5090982;28;20385;-71
2021/11/11 09:18:33;;;;;;;7.07;5.97;;;;;;;;;;5089322;28;20523;-70
2021/11/11 09:21:05;;;;;;;6.65;5.88;;;;;;;;;;5082286;28;20411;-71
2021/11/11 09:23:37;;;;;;;7.22;5.85;;;;;;;;;;5085414;28;20385;-71
2021/11/11 09:26:12;;;;;;;6.15;5.25;;;;;;;;;;5083106;28;20381;-71
2021/11/11 09:28:40;;;;;;;6.17;5.57;;;;;;;;;;5074158;28;20410;-70
2021/11/11 09:31:10;;;;;;;7.05;5.78;;;;;;;;;;5088103;28;20877;-71
2021/11/11 09:33:42;;;;;;;7.60;5.68;;;;;;;;;;5085642;28;20471;-69
2021/11/11 09:36:13;;;;;;;6.13;5.30;;;;;;;;;;5088725;28;20392;-71
2021/11/11 09:38:45;;;;;;;7.10;6.00;;;;;;;;;;5064592;28;20435;-69
2021/11/11 09:41:14;;;;;;;6.13;4.85;;;;;;;;;;5087507;28;20384;-70
2021/11/11 09:43:44;;;;;;;6.00;5.40;;;;;;;;;;5085848;28;20396;-71
2021/11/11 09:46:21;;;;;;;6.18;5.50;;;;;;;;;;5084664;28;20889;-69
2021/11/11 09:49:00;;;;;;;5.93;5.35;;;;;;;;;;5087658;28;20484;-68
2021/11/11 09:51:41;;;;;;;7.35;6.55;;;;;;;;;;5089073;28;20397;-71
2021/11/11 09:58:34;;;;;;;10.23;7.05;;;;;;;;;;5086403;28;20738;-71
2021/11/11 09:59:56;;;;;;;;;;;;;;;;;;5088580;28;20388;-67
2021/11/11 10:02:27;;;;;;;;;;;;;;;;;;5080944;28;20413;-68
2021/11/11 10:04:55;;;;;;;;;;;;;;;;;;5073684;28;19924;-68
2021/11/11 10:07:22;;;;;;;;;;;;;;;;;;5092054;28;19938;-71
2021/11/11 10:09:51;;;;;;;;;;;;;;;;;;5075084;28;20313;-71
2021/11/11 10:12:21;;;;;;;;;;;;;;;;;;5069613;28;19924;-69
2021/11/11 10:14:48;;;;;;;;;;;;;;;;;;5072896;28;19940;-69
2021/11/11 10:17:18;;;;;;;;;;;;;;;;;;5067971;28;19920;-68
2021/11/11 10:19:50;;;;;;;;;;;;;;;;;;5074431;28;19939;-69
2021/11/11 10:22:23;;;;;;;;;;;;;;;;;;5059865;28;20560;-69
2021/11/11 10:25:00;;;;;;;;;;;;;;;;;;5077863;28;20366;-68
2021/11/11 10:27:48;;;;;;;;;;;;;;;;;;5067738;28;19920;-68
2021/11/11 10:30:23;;;;;;;;;;;;;;;;;;5069237;28;19931;-71
2021/11/11 10:32:56;;;;;;;;;;;;;;;;;;5069532;28;19920;-69
2021/11/11 10:35:27;;;;;;;;;;;;;;;;;;5070514;28;19920;-69
2021/11/11 10:38:00;;;;;;;;;;;;;;;;;;5070428;28;20334;-70
2021/11/11 10:40:31;;;;;;;;;;;;;;;;;;5068508;28;19976;-71
2021/11/11 10:43:01;;;;;;;;;;;;;;;;;;5078333;28;19923;-69
2021/11/11 10:45:48;;;;;;;;;;;;;;;;;;5069744;28;20007;-68
2021/11/11 10:48:18;;;;;;;;;;;;;;;;;;5073230;28;19923;-70
2021/11/11 10:50:49;;;;;;;;;;;;;;;;;;5050920;28;19971;-70
2021/11/11 10:53:19;;;;;;;;;;;;;;;;;;5066137;28;19932;-70
2021/11/11 10:55:50;;;;;;;;;;;;;;;;;;5073395;28;20335;-69
2021/11/11 10:58:18;;;;;;;;;;;;;;;;;;5069921;28;19924;-70
2021/11/11 11:00:45;;;;;;;;;;;;;;;;;;5069467;28;19920;-69
2021/11/11 11:03:17;;;;;;;;;;;;;;;;;;5077338;28;19954;-70
2021/11/11 11:05:53;;;;;;;;;;;;;;;;;;5068341;28;19924;-67
2021/11/11 11:08:20;;;;;;;;;;;;;;;;;;5068251;28;19925;-69
2021/11/11 11:10:50;;;;;;;;;;;;;;;;;;5063512;28;20315;-68
2021/11/11 11:13:23;;;;;;;;;;;;;;;;;;5064626;28;20384;-66
2021/11/11 11:16:00;;;;;;;;;;;;;;;;;;5070076;28;19924;-70
2021/11/11 11:18:31;;;;;;;;;;;;;;;;;;5064703;28;19950;-68
2021/11/11 11:21:01;;;;;;;;;;;;;;;;;;5070640;28;20750;-69
2021/11/11 11:23:32;;;;;;;;;;;;;;;;;;5074260;28;20292;-68
2021/11/11 11:26:00;;;;;;;;;;;;;;;;;;5075041;28;20416;-71
2021/11/11 11:28:28;;;;;;;;;;;;;;;;;;5062370;28;19924;-70
2021/11/11 11:30:58;;;;;;;;;;;;;;;;;;5068168;28;19932;-70
2021/11/11 11:33:33;;;;;;;;;;;;;;;;;;5056093;28;19920;-69
2021/11/11 11:36:01;;;;;;;;;;;;;;;;;;5063091;28;19924;-70
2021/11/11 11:38:38;;;;;;;;;;;;;;;;;;5066309;28;20285;-73
2021/11/11 11:41:07;;;;;;;;;;;;;;;;;;5071245;28;19936;-71
2021/11/11 11:43:37;;;;;;;;;;;;;;;;;;5058611;28;19925;-71
2021/11/11 11:46:06;;;;;;;;;;;;;;;;;;5044465;28;19920;-73
2021/11/11 11:48:37;;;;;;;;;;;;;;;;;;5060728;28;19964;-74
2021/11/11 11:51:09;;;;;;;;;;;;;;;;;;5066537;28;20473;-73
2021/11/11 11:53:46;;;;;;;;;;;;;;;;;;5068075;28;19931;-73
2021/11/11 11:56:43;;;;;;;;;;;;;;;;;;5068673;28;19921;-72
2021/11/11 11:59:11;;;;;;;;;;;;;;;;;;5066019;28;19920;-69
2021/11/11 12:02:01;;;;;;;;;;;;;;;;;;5064516;28;19959;-71
2021/11/11 12:10:09;;;;;;;;;;;;;;;;;;5060057;28;19921;-69
2021/11/11 12:15:26;;;;;;;;;;;;;;;;;;5063825;28;20346;-73
2021/11/11 12:40:03;;;;;;;;;;;;;;;;;;5059041;28;19928;-71
2021/11/11 12:42:42;;;;;;;;;;;;;;;;;;5057222;28;20292;-68
2021/11/11 12:45:18;;;;;;;;;;;;;;;;;;5056059;28;19936;-68
2021/11/11 12:47:51;;;;;;;;;;;;;;;;;;5056304;28;19920;-69
2021/11/11 12:50:21;;;;;;;;;;;;;;;;;;5064713;28;19932;-71
2021/11/11 12:52:49;;;;;;;;;;;;;;;;;;5059934;28;19930;-71
2021/11/11 12:55:17;;;;;;;;;;;;;;;;;;5053377;28;19925;-71
2021/11/11 12:57:46;;;;;;;;;;;;;;;;;;5057936;28;19931;-73
2021/11/11 13:00:18;;;;;;;;;;;;;;;;;;5066815;28;19934;-70
2021/11/11 13:02:47;;;;;;;;;;;;;;;;;;5064302;28;20004;-70
2021/11/11 13:05:17;;;;;;;;;;;;;;;;;;5068557;28;20548;-70
2021/11/11 13:07:45;;;;;;;;;;;;;;;;;;5069800;28;19920;-70
2021/11/11 13:10:19;;;;;;;;;;;;;;;;;;5072949;28;19920;-69
2021/11/11 13:12:48;;;;;;;;;;;;;;;;;;5084623;28;19920;-72
2021/11/11 13:15:16;;;;;;;;;;;;;;;;;;5076699;28;19939;-70
2021/11/11 13:17:44;;;;;;;;;;;;;;;;;;5072402;28;19920;-70
2021/11/11 13:20:13;;;;;;;;;;;;;;;;;;5074997;28;19920;-69
2021/11/11 13:22:52;;;;;;;;;;;;;;;;;;5073961;28;20360;-72
2021/11/11 13:25:50;;;;;;;;;;;;;;;;;;5075652;28;20369;-71
2021/11/11 13:43:53;;;;;;;;;;;;;;;;;;5089300;28;19933;-70
2021/11/11 14:00:14;;;;;;;;;;;;;;;;;;5030337;28;19955;-69
2021/11/11 15:04:39;;;;;;;;;;;;;;;;;;5063847;28;20570;-68
2021/11/11 15:45:01;;;;;;;;;;;;;;;;;;5059663;28;19924;-72
2021/11/11 16:01:37;;;;;;;;;;;;;;;;;;5066671;28;19927;-69
2021/11/11 16:25:02;;;;;;;;;;;;;;;;;;5038019;28;19936;-70
2021/11/11 16:26:58;;;;;;;;;;;;;;;;;;5059520;28;19932;-69
2021/11/11 16:29:27;;;;;;;;;;;;;;;;;;5072832;28;19939;-70
2021/11/11 16:31:55;;;;;;;;;;;;;;;;;;5077981;28;20279;-70
2021/11/11 16:34:25;;;;;;;;;;;;;;;;;;5079111;28;19924;-69
2021/11/11 16:36:55;;;;;;;;;;;;;;;;;;5066696;28;20042;-68
2021/11/11 16:39:26;;;;;;;;;;;;;;;;;;5085566;28;19931;-71
2021/11/11 16:41:56;;;;;;;;;;;;;;;;;;5087232;28;20357;-68
2021/11/11 16:44:27;;;;;;;;;;;;;;;;;;5091691;28;19924;-69
2021/11/11 16:47:07;;;;;;;;;;;;;;;;;;5077278;28;20265;-69
2021/11/11 16:49:36;;;;;;;;;;;;;;;;;;5072298;28;19978;-69
2021/11/11 16:52:06;;;;;;;;;;;;;;;;;;5086691;28;19928;-68
2021/11/11 16:54:35;;;;;;;;;;;;;;;;;;5061106;28;19935;-67
2021/11/11 16:57:05;;;;;;;;;;;;;;;;;;5078753;28;19928;-69
2021/11/11 16:59:47;;;;;;;;;;;;;;;;;;5062341;28;20074;-69
2021/11/11 17:02:17;;;;;;;;;;;;;;;;;;5081800;28;19928;-69
2021/11/11 17:04:48;;;;;;;;;;;;;;;;;;5082816;28;19958;-67
2021/11/11 17:07:29;;;;;;;;;;;;;;;;;;5083076;28;20029;-67
2021/11/11 17:09:59;;;;;;;;;;;;;;;;;;5086948;28;19924;-67
2021/11/11 17:12:29;;;;;;;;;;;;;;;;;;5077235;28;20402;-69
2021/11/11 17:15:02;;;;;;;;;;;;;;;;;;5071827;28;19932;-68
2021/11/11 17:17:33;;;;;;;;;;;;;;;;;;5086624;28;20543;-68
2021/11/11 17:20:07;;;;;;;;;;;;;;;;;;5088495;28;19924;-68
2021/11/11 17:22:48;;;;;;;;;;;;;;;;;;5083545;28;19928;-68
2021/11/11 17:28:28;;;;;;;;;;;;;;;;;;5027880;28;19932;-68
2021/11/11 17:31:02;;;;;;;;;;;;;;;;;;5081924;28;20431;-69
2021/11/11 17:33:31;;;;;;;;;;;;;;;;;;5083133;28;19940;-68
2021/11/11 17:36:00;;;;;;;;;;;;;;;;;;5085821;28;19930;-67
2021/11/11 17:38:43;;;;;;;;;;;;;;;;;;5085422;28;20014;-68
2021/11/11 17:41:14;;;;;;;;;;;;;;;;;;5089228;28;19927;-68
2021/11/11 17:43:45;;;;;;;;;;;;;;;;;;5085513;28;19924;-67
2021/11/11 17:46:23;;;;;;;;;;;;;;;;;;5088365;28;19928;-68
2021/11/11 17:48:55;;;;;;;;;;;;;;;;;;5091171;28;20231;-67
2021/11/11 17:51:40;;;;;;;;;;;;;;;;;;5088841;28;19924;-67
2021/11/11 17:54:28;;;;;;;;;;;;;;;;;;5076437;28;19933;-70
2021/11/11 17:57:18;;;;;;;;;;;;;;;;;;5084379;28;19924;-71
2021/11/11 17:59:46;;;;;;;;;;;;;;;;;;5092397;28;19924;-69
2021/11/11 18:02:25;;;;;;;;;;;;;;;;;;5072527;28;20467;-69
2021/11/11 18:05:02;;;;;;;;;;;;;;;;;;5087370;28;19924;-72
2021/11/11 18:08:07;;;;;;;;;;;;;;;;;;5078018;28;19924;-72
2021/11/11 18:10:42;;;;;;;;;;;;;;;;;;5058178;28;19931;-71
2021/11/11 18:13:16;;;;;;;;;;;;;;;;;;5068324;28;19933;-71
2021/11/11 18:15:48;;;;;;;;;;;;;;;;;;5053579;28;19925;-70
2021/11/11 18:18:19;;;;;;;;;;;;;;;;;;5070355;28;19935;-72
2021/11/11 18:20:48;;;;;;;;;;;;;;;;;;5065929;28;19943;-71
2021/11/11 18:23:18;;;;;;;;;;;;;;;;;;5061714;28;19943;-71
2021/11/11 18:25:49;;;;;;;;;;;;;;;;;;5069648;28;19935;-71
2021/11/11 18:28:26;;;;;;;;;;;;;;;;;;5066596;28;19924;-70
2021/11/11 18:31:01;;;;;;;;;;;;;;;;;;5067536;28;19925;-68
2021/11/11 18:33:38;;;;;;;;;;;;;;;;;;5065978;28;19950;-70
2021/11/11 18:36:10;;;;;;;;;;;;;;;;;;5065904;28;19954;-67
2021/11/11 18:38:42;;;;;;;;;;;;;;;;;;5063200;28;19934;-67
2021/11/11 18:41:13;;;;;;;;;;;;;;;;;;5063070;28;19932;-67
2021/11/11 18:43:44;;;;;;;;;;;;;;;;;;5068300;28;20560;-67
2021/11/11 18:46:16;;;;;;;;;;;;;;;;;;5065553;28;19928;-67
2021/11/11 18:48:48;;;;;;;;;;;;;;;;;;5064177;28;19928;-66
2021/11/11 18:51:35;;;;;;;;;;;;;;;;;;5067624;28;19928;-68
2021/11/11 18:54:04;;;;;;;;;;;;;;;;;;5066512;28;20615;-68
2021/11/11 18:56:37;;;;;;;;;;;;;;;;;;5059760;28;19928;-69
2021/11/11 18:59:07;;;;;;;;;;;;;;;;;;5048564;28;19928;-70
2021/11/11 19:01:35;;;;;;;;;;;;;;;;;;5066784;28;20187;-70
2021/11/11 19:04:11;;;;;;;;;;;;;;;;;;5066479;28;19929;-70
2021/11/11 19:06:44;;;;;;;;;;;;;;;;;;5059745;28;19935;-71
2021/11/11 19:09:19;;;;;;;;;;;;;;;;;;5057660;28;19936;-70
2021/11/11 19:12:02;;;;;;;;;;;;;;;;;;5076175;28;19985;-71
2021/11/11 19:14:35;;;;;;;;;;;;;;;;;;5063369;28;20377;-71
2021/11/11 19:17:17;;;;;;;;;;;;;;;;;;5082962;28;20394;-71
2021/11/11 19:19:48;;;;;;;;;;;;;;;;;;5067830;28;19935;-71
2021/11/11 19:22:20;;;;;;;;;;;;;;;;;;5064669;28;20263;-72
2021/11/11 19:24:48;;;;;;;;;;;;;;;;;;5075531;28;20046;-70
2021/11/11 19:27:19;;;;;;;;;;;;;;;;;;5078316;28;19924;-70
2021/11/11 19:29:48;;;;;;;;;;;;;;;;;;5063036;28;19932;-71
2021/11/11 19:32:16;;;;;;;;;;;;;;;;;;5085387;28;19928;-71